Time;durP1;ratioP1;P1;durP2;ratioP2;P2;SDS_P1;SDS_P2;PMS_P1;PMS_P2;Temp;Humidity;BMP_temperature;BMP_pressure;BME280_temperature;BME280_humidity;BME280_pressure;Samples;Min_cycle;Max_cycle;Signal;HPM_P1;HPM_P2
2022/10/02 00:02:05;;;;;;;;;7.00;6.00;;;;;16.04;62.80;98226.66;6141421;28;96653;-68
2022/10/02 00:05:13;;;;;;;;;5.60;5.00;;;;;15.80;62.68;98198.38;6165349;28;96369;-68
2022/10/02 00:08:23;;;;;;;;;6.00;6.00;;;;;15.97;62.94;98229.66;6164758;28;96357;-68
2022/10/02 00:11:42;;;;;;;;;5.00;5.00;;;;;15.97;62.83;98239.72;6164410;28;96328;-67
2022/10/02 00:14:48;;;;;;;;;5.25;5.25;;;;;16.06;62.90;98229.09;6139820;28;96476;-68
2022/10/02 00:17:55;;;;;;;;;5.00;5.00;;;;;16.04;63.02;98234.81;6164547;28;97503;-68
2022/10/02 00:21:04;;;;;;;;;5.00;5.00;;;;;15.98;63.11;98235.88;6147373;28;96339;-68
2022/10/02 00:24:15;;;;;;;;;6.00;6.00;;;;;15.93;63.45;98231.25;6146744;28;96811;-68
2022/10/02 00:27:38;;;;;;;;;6.00;6.00;;;;;15.88;63.69;98244.06;6162715;28;97067;-68
2022/10/02 00:30:57;;;;;;;;;6.00;6.00;;;;;15.93;63.55;98246.78;6149193;28;96495;-68
2022/10/02 00:34:20;;;;;;;;;5.40;5.40;;;;;15.95;63.93;98233.72;6165207;28;96251;-69
2022/10/02 00:37:34;;;;;;;;;5.00;5.00;;;;;15.89;63.72;98245.66;6164708;28;96862;-69
2022/10/02 00:41:04;;;;;;;;;6.00;6.00;;;;;15.80;64.02;98253.56;6147071;28;96274;-68
2022/10/02 00:44:25;;;;;;;;;5.75;5.00;;;;;15.71;64.63;98262.50;6145426;28;96607;-67
2022/10/02 00:47:39;;;;;;;;;4.80;4.80;;;;;15.80;64.59;98260.88;6164447;28;96395;-68
2022/10/02 00:50:52;;;;;;;;;7.00;6.00;;;;;15.77;64.39;98264.97;6164092;28;96989;-68
2022/10/02 00:54:05;;;;;;;;;5.75;5.50;;;;;15.95;63.98;98258.19;6163789;28;96590;-68
2022/10/02 00:57:18;;;;;;;;;5.00;5.00;;;;;15.98;63.88;98253.00;6164308;28;96848;-68
2022/10/02 01:00:22;;;;;;;;;5.00;5.00;;;;;16.02;63.74;98256.84;6163625;28;96401;-67
2022/10/02 01:03:33;;;;;;;;;6.60;6.60;;;;;16.08;63.58;98262.28;6162833;28;96482;-67
2022/10/02 01:06:37;;;;;;;;;5.00;5.00;;;;;16.06;63.58;98265.25;6163425;28;96350;-67
2022/10/02 01:09:41;;;;;;;;;5.00;5.00;;;;;16.15;63.65;98276.41;6163560;28;96548;-67
2022/10/02 01:12:46;;;;;;;;;5.00;4.60;;;;;16.23;63.56;98284.81;6161645;28;96231;-68
2022/10/02 01:15:56;;;;;;;;;4.00;4.00;;;;;16.20;63.46;98276.41;6163820;28;96585;-67
2022/10/02 01:18:59;;;;;;;;;4.00;4.00;;;;;16.25;62.80;98279.13;6145671;28;96859;-68
2022/10/02 01:22:10;;;;;;;;;5.00;4.75;;;;;16.32;63.30;98285.91;6163287;28;96229;-68
2022/10/02 01:25:16;;;;;;;;;5.00;5.00;;;;;16.30;63.21;98273.69;6163285;28;96461;-68
2022/10/02 01:28:19;;;;;;;;;6.50;6.00;;;;;16.38;62.99;98281.28;6163309;28;96806;-68
2022/10/02 01:31:23;;;;;;;;;5.00;5.00;;;;;16.27;62.90;98291.34;6163720;28;97024;-68
2022/10/02 01:34:27;;;;;;;;;4.40;4.40;;;;;16.22;62.96;98287.84;6155198;28;96443;-68
2022/10/02 01:37:33;;;;;;;;;6.00;6.00;;;;;16.30;62.96;98296.25;6163459;28;96513;-68
2022/10/02 01:40:40;;;;;;;;;5.00;5.00;;;;;16.07;62.90;98277.78;6163486;28;96484;-68
2022/10/02 01:43:48;;;;;;;;;4.60;4.60;;;;;16.18;63.10;98312.03;6163829;28;96308;-68
2022/10/02 01:47:02;;;;;;;;;5.00;5.00;;;;;16.29;63.39;98310.13;6161535;28;96864;-68
2022/10/02 01:50:17;;;;;;;;;5.00;5.00;;;;;16.31;62.91;98308.78;6146041;28;96196;-69
2022/10/02 01:53:28;;;;;;;;;5.00;5.00;;;;;16.32;63.24;98323.19;6162542;28;96567;-68
2022/10/02 01:56:44;;;;;;;;;4.00;4.00;;;;;16.24;63.46;98321.81;6163512;28;96361;-68
2022/10/02 01:59:59;;;;;;;;;5.40;5.00;;;;;16.11;63.67;98327.81;6146036;28;96313;-69
2022/10/02 02:03:18;;;;;;;;;6.00;6.00;;;;;16.25;63.91;98342.50;6163269;28;96388;-69
2022/10/02 02:06:29;;;;;;;;;6.00;5.00;;;;;16.25;64.19;98330.81;6145099;28;97108;-68
2022/10/02 02:09:40;;;;;;;;;3.00;3.00;;;;;16.19;64.51;98329.97;6162314;28;96362;-69
2022/10/02 02:12:52;;;;;;;;;4.00;4.00;;;;;16.08;64.77;98331.03;6145374;28;96890;-67
2022/10/02 02:16:03;;;;;;;;;5.00;5.00;;;;;16.00;65.73;98326.97;6163029;28;96288;-67
2022/10/02 02:19:17;;;;;;;;;4.00;4.00;;;;;16.06;65.38;98335.97;6162981;28;96823;-68
2022/10/02 02:22:24;;;;;;;;;4.00;4.00;;;;;16.07;65.64;98340.31;6161910;28;96248;-68
2022/10/02 02:25:32;;;;;;;;;5.67;5.00;;;;;16.14;65.40;98332.69;6161810;28;96942;-68
2022/10/02 02:28:40;;;;;;;;;4.40;4.40;;;;;16.07;65.53;98342.22;6154602;28;96107;-67
2022/10/02 02:31:48;;;;;;;;;4.00;4.00;;;;;16.13;65.42;98335.69;6143041;28;99696;-69
2022/10/02 02:34:58;;;;;;;;;6.00;5.60;;;;;16.21;65.49;98344.13;6145129;28;96850;-67
2022/10/02 02:38:06;;;;;;;;;6.00;6.00;;;;;16.27;65.36;98332.16;6164034;28;96502;-68
2022/10/02 02:41:14;;;;;;;;;5.00;5.00;;;;;16.20;65.46;98347.94;6166033;28;96262;-68
2022/10/02 02:44:24;;;;;;;;;5.40;5.40;;;;;16.26;65.47;98346.84;6165742;28;96275;-68
2022/10/02 02:47:33;;;;;;;;;4.40;4.40;;;;;16.23;65.50;98346.56;6164950;28;97512;-67
2022/10/02 02:50:42;;;;;;;;;6.00;6.00;;;;;16.13;65.51;98352.00;6164626;28;96500;-68
2022/10/02 02:53:51;;;;;;;;;4.00;3.60;;;;;16.11;65.92;98351.47;6164350;28;96344;-70
2022/10/02 02:56:58;;;;;;;;;4.00;4.00;;;;;16.13;65.56;98355.53;6164155;28;96400;-68
2022/10/02 03:00:06;;;;;;;;;5.50;5.00;;;;;16.13;66.34;98355.53;6147074;28;96827;-68
2022/10/02 03:03:10;;;;;;;;;5.00;5.00;;;;;16.12;66.13;98366.69;6165897;28;96786;-69
2022/10/02 03:06:36;;;;;;;;;5.60;5.00;;;;;16.12;66.09;98367.50;6166342;28;96287;-69
2022/10/02 03:09:41;;;;;;;;;5.00;4.00;;;;;16.07;66.11;98372.13;6165744;28;96240;-68
2022/10/02 03:12:57;;;;;;;;;6.00;6.00;;;;;15.92;66.26;98362.84;6165990;28;97580;-68
2022/10/02 03:16:16;;;;;;;;;5.80;5.00;;;;;15.93;66.92;98367.19;6166191;28;96416;-67
2022/10/02 03:19:37;;;;;;;;;7.00;6.00;;;;;15.76;66.98;98377.50;6165903;28;96432;-69
2022/10/02 03:22:53;;;;;;;;;5.00;5.00;;;;;15.71;67.36;98363.06;6165084;28;97772;-67
2022/10/02 03:26:03;;;;;;;;;5.00;5.00;;;;;15.84;67.26;98368.81;6148193;28;96273;-68
2022/10/02 03:29:13;;;;;;;;;5.00;4.00;;;;;15.91;67.01;98376.72;6160715;28;97653;-68
2022/10/02 03:32:20;;;;;;;;;5.60;5.00;;;;;15.86;66.96;98372.09;6165520;28;96918;-69
2022/10/02 03:35:25;;;;;;;;;4.20;4.20;;;;;15.80;67.24;98373.16;6165718;28;97628;-69
2022/10/02 03:38:31;;;;;;;;;5.25;4.00;;;;;15.87;67.02;98376.44;6166202;28;96412;-68
2022/10/02 03:41:34;;;;;;;;;4.00;4.00;;;;;15.87;67.01;98384.59;6164084;28;96250;-68
2022/10/02 03:44:38;;;;;;;;;5.00;5.00;;;;;15.83;67.12;98383.47;6165957;28;96620;-68
2022/10/02 03:47:42;;;;;;;;;4.00;4.00;;;;;15.69;67.34;98395.13;6164018;28;96707;-69
2022/10/02 03:50:46;;;;;;;;;5.00;5.00;;;;;15.69;67.45;98403.25;6165228;28;96293;-68
2022/10/02 03:53:50;;;;;;;;;3.75;3.75;;;;;15.71;67.51;98404.66;6165187;28;97548;-67
2022/10/02 03:56:56;;;;;;;;;4.00;4.00;;;;;15.79;67.43;98408.75;6148182;28;97305;-67
2022/10/02 04:00:05;;;;;;;;;5.00;5.00;;;;;15.88;66.88;98418.03;6164702;28;96344;-69
2022/10/02 04:03:12;;;;;;;;;3.60;3.60;;;;;15.89;66.17;98422.38;6165532;28;96404;-68
2022/10/02 04:06:22;;;;;;;;;6.40;6.00;;;;;15.86;66.37;98412.84;6165401;28;96509;-67
2022/10/02 04:09:31;;;;;;;;;4.00;4.00;;;;;15.91;66.12;98418.31;6164764;28;96420;-69
2022/10/02 04:12:39;;;;;;;;;5.00;5.00;;;;;16.04;66.13;98417.78;6165126;28;96304;-67
2022/10/02 04:15:56;;;;;;;;;6.00;5.00;;;;;16.09;65.24;98422.41;6164793;28;96836;-67
2022/10/02 04:19:09;;;;;;;;;5.67;4.00;;;;;16.12;64.75;98418.38;6160117;28;96380;-67
2022/10/02 04:22:22;;;;;;;;;5.00;5.00;;;;;16.24;64.44;98425.19;6137874;28;96629;-68
2022/10/02 04:25:33;;;;;;;;;5.00;4.80;;;;;16.20;64.38;98428.72;6158096;28;96298;-67
2022/10/02 04:28:42;;;;;;;;;6.60;6.00;;;;;16.21;64.07;98436.59;6157758;28;97175;-67
2022/10/02 04:31:52;;;;;;;;;4.60;4.60;;;;;16.26;64.33;98442.06;6157115;28;96217;-67
2022/10/02 04:34:58;;;;;;;;;5.00;5.00;;;;;16.21;63.88;98436.59;6156156;28;96355;-68
2022/10/02 04:38:29;;;;;;;;;4.00;4.00;;;;;16.14;64.06;98446.91;6156246;28;96354;-67
2022/10/02 04:41:57;;;;;;;;;6.00;5.00;;;;;16.13;63.65;98452.59;6150020;28;96575;-69
2022/10/02 04:45:22;;;;;;;;;6.00;6.00;;;;;16.23;63.75;98461.63;6154940;28;96404;-68
2022/10/02 04:48:49;;;;;;;;;6.00;5.00;;;;;16.21;63.76;98471.97;6157041;28;96387;-68
2022/10/02 04:52:13;;;;;;;;;4.00;4.00;;;;;16.22;63.54;98479.03;6155014;28;96812;-67
2022/10/02 04:55:41;;;;;;;;;5.00;5.00;;;;;16.27;63.30;98472.81;6162961;28;96434;-68
2022/10/02 04:59:01;;;;;;;;;5.00;5.00;;;;;16.28;63.05;98485.28;6163137;28;96871;-68
2022/10/02 05:02:16;;;;;;;;;5.00;4.75;;;;;16.37;63.05;98484.50;6155198;28;96422;-69
2022/10/02 05:05:32;;;;;;;;;6.00;5.80;;;;;16.32;62.94;98491.84;6145460;28;96840;-67
2022/10/02 05:08:51;;;;;;;;;6.40;6.00;;;;;16.36;62.92;98490.22;6161672;28;96352;-69
2022/10/02 05:12:27;;;;;;;;;6.00;6.00;;;;;16.45;62.51;98494.88;6161698;28;96634;-69
2022/10/02 05:15:53;;;;;;;;;6.00;5.00;;;;;16.39;62.56;98493.22;6161278;28;98318;-67
2022/10/02 05:19:16;;;;;;;;;6.20;5.20;;;;;16.36;62.41;98501.09;6145142;28;96676;-67
2022/10/02 05:22:41;;;;;;;;;6.00;6.00;;;;;16.31;62.17;98501.91;6163376;28;96330;-67
2022/10/02 05:26:08;;;;;;;;;6.20;6.00;;;;;16.20;62.08;98470.31;6163976;28;97559;-68
2022/10/02 05:29:31;;;;;;;;;6.00;6.00;;;;;16.54;61.68;98510.66;6141364;28;96161;-69
2022/10/02 05:33:00;;;;;;;;;5.20;5.20;;;;;16.48;61.38;98507.09;6143351;28;96808;-69
2022/10/02 05:36:20;;;;;;;;;6.00;5.50;;;;;16.57;61.30;98521.81;6153928;28;96256;-69
2022/10/02 05:39:28;;;;;;;;;6.00;5.20;;;;;16.57;61.06;98524.53;6163953;28;96115;-69
2022/10/02 05:42:38;;;;;;;;;6.00;5.00;;;;;16.55;60.70;98528.63;6162129;28;96456;-69
2022/10/02 05:45:52;;;;;;;;;6.40;5.40;;;;;16.55;60.86;98520.47;6145884;28;97238;-69
2022/10/02 05:49:00;;;;;;;;;5.00;5.00;;;;;16.61;60.58;98535.75;6155169;28;96537;-67
2022/10/02 05:52:11;;;;;;;;;5.00;5.00;;;;;16.69;60.17;98535.22;6151875;28;97776;-67
2022/10/02 05:55:19;;;;;;;;;4.00;3.60;;;;;16.74;60.12;98540.66;6157378;28;96569;-67
2022/10/02 05:58:30;;;;;;;;;5.00;4.00;;;;;16.93;59.55;98539.06;6152432;28;96539;-68
2022/10/02 06:01:39;;;;;;;;;5.00;5.00;;;;;16.88;59.41;98539.06;6161428;28;96370;-67
2022/10/02 06:04:51;;;;;;;;;5.40;5.00;;;;;16.88;59.32;98541.78;6162418;28;96553;-68
2022/10/02 06:08:01;;;;;;;;;5.00;5.00;;;;;16.91;59.09;98554.03;6139498;28;96870;-68
2022/10/02 06:11:11;;;;;;;;;5.00;5.00;;;;;17.00;58.87;98555.97;6145235;28;96540;-68
2022/10/02 06:14:23;;;;;;;;;5.00;4.20;;;;;16.94;58.83;98559.75;6165094;28;96889;-68
2022/10/02 06:17:30;;;;;;;;;6.00;6.00;;;;;16.95;58.95;98555.97;6156060;28;96413;-69
2022/10/02 06:20:40;;;;;;;;;6.00;5.40;;;;;16.99;58.98;98564.38;6140497;28;96335;-68
2022/10/02 06:23:48;;;;;;;;;4.00;4.00;;;;;16.93;58.88;98563.56;6148607;28;96798;-68
2022/10/02 06:26:59;;;;;;;;;5.00;5.00;;;;;16.98;58.99;98577.19;6155363;28;96466;-69
2022/10/02 06:30:08;;;;;;;;;5.00;4.00;;;;;17.02;58.62;98574.72;6137373;28;96707;-69
2022/10/02 06:33:18;;;;;;;;;3.20;3.00;;;;;17.11;58.51;98567.66;6167329;28;96475;-69
2022/10/02 06:36:48;;;;;;;;;5.00;5.00;;;;;17.32;57.95;98575.56;6164657;28;97552;-68
2022/10/02 06:40:13;;;;;;;;;6.00;6.00;;;;;18.48;54.71;98579.94;6157848;28;96784;-68
2022/10/02 06:43:49;;;;;;;;;6.40;5.40;;;;;18.95;53.33;98581.38;6146363;28;96682;-68
2022/10/02 06:47:08;;;;;;;;;7.00;6.40;;;;;18.81;53.11;98581.19;6136178;28;96420;-69
2022/10/02 06:50:27;;;;;;;;;6.60;6.60;;;;;18.86;52.76;98592.06;6157285;28;96597;-68
2022/10/02 06:53:45;;;;;;;;;5.60;5.00;;;;;19.50;50.47;98591.06;6161572;28;96930;-68
2022/10/02 06:57:06;;;;;;;;;6.00;6.00;;;;;19.42;49.87;98597.94;6155729;28;96569;-68
2022/10/02 07:00:13;;;;;;;;;5.40;5.40;;;;;19.34;49.95;98603.22;6165484;28;96262;-68
2022/10/02 07:03:35;;;;;;;;;7.00;6.00;;;;;19.73;50.16;98600.44;6158486;28;97412;-68
2022/10/02 07:06:51;;;;;;;;;6.00;6.00;;;;;20.07;48.42;98605.84;6162044;28;97127;-70
2022/10/02 07:10:15;;;;;;;;;5.60;5.60;;;;;21.14;46.91;98595.19;6161347;28;96994;-69
2022/10/02 07:13:34;;;;;;;;;3.60;3.60;;;;;21.91;43.30;98612.00;6132381;28;97041;-69
2022/10/02 07:17:10;;;;;;;;;5.80;5.80;;;;;21.38;44.99;98617.84;6164689;28;96267;-69
2022/10/02 07:20:37;;;;;;;;;6.60;6.60;;;;;20.75;45.59;98623.69;6166433;28;96611;-68
2022/10/02 07:23:50;;;;;;;;;8.75;7.00;;;;;20.59;46.44;98624.16;6163270;28;96969;-69
2022/10/02 07:27:01;;;;;;;;;5.75;5.75;;;;;20.37;47.35;98618.41;6165250;28;96335;-68
2022/10/02 07:30:08;;;;;;;;;6.00;5.25;;;;;20.02;47.19;98616.84;6165475;28;96348;-69
2022/10/02 07:33:20;;;;;;;;;5.67;5.67;;;;;19.82;47.68;98620.59;6166085;28;96381;-69
2022/10/02 07:36:42;;;;;;;;;6.40;6.40;;;;;19.69;48.64;98613.91;6146620;28;96690;-70
2022/10/02 07:40:02;;;;;;;;;7.00;6.40;;;;;20.43;46.85;98618.03;6163234;28;96463;-70
2022/10/02 07:43:18;;;;;;;;;4.00;4.00;;;;;22.24;43.27;98610.03;6163691;28;97117;-68
2022/10/02 07:46:33;;;;;;;;;5.00;4.25;;;;;22.51;41.21;98625.72;6163861;28;96632;-70
2022/10/02 07:49:50;;;;;;;;;3.75;3.00;;;;;22.04;42.40;98634.03;6163308;28;96382;-70
2022/10/02 07:53:05;;;;;;;;;6.60;6.00;;;;;21.78;42.88;98612.81;6143091;28;96941;-70
2022/10/02 07:56:18;;;;;;;;;6.00;6.00;;;;;21.71;43.49;98621.41;6140447;28;96440;-69
2022/10/02 07:59:22;;;;;;;;;6.00;6.00;;;;;21.66;42.77;98610.53;6160253;28;96977;-69
2022/10/02 08:02:34;;;;;;;;;4.00;3.40;;;;;22.46;42.58;98616.47;6162793;28;96380;-69
2022/10/02 08:05:41;;;;;;;;;6.60;6.60;;;;;24.24;38.83;98615.06;6162910;28;96889;-70
2022/10/02 08:08:51;;;;;;;;;4.25;4.00;;;;;24.99;36.32;98607.34;6143424;28;96659;-70
2022/10/02 08:11:59;;;;;;;;;5.00;5.00;;;;;25.61;34.75;98620.06;6161357;28;96363;-70
2022/10/02 08:15:06;;;;;;;;;5.00;5.00;;;;;26.26;33.55;98620.56;6161990;28;96883;-69
2022/10/02 08:18:18;;;;;;;;;5.40;4.60;;;;;26.05;33.98;98613.28;6157612;28;96528;-69
2022/10/02 08:21:43;;;;;;;;;4.50;4.50;;;;;26.22;33.50;98607.75;6156199;28;96846;-68
2022/10/02 08:24:55;;;;;;;;;4.40;4.40;;;;;26.74;32.33;98611.88;6150622;28;96562;-68
2022/10/02 08:28:03;;;;;;;;;3.60;3.60;;;;;25.59;33.17;98612.09;6163146;28;96413;-68
2022/10/02 08:31:10;;;;;;;;;6.00;6.00;;;;;25.70;33.91;98602.34;6147634;28;97210;-69
2022/10/02 08:34:18;;;;;;;;;5.00;5.00;;;;;25.62;34.23;98607.84;6162472;28;96212;-70
2022/10/02 08:37:36;;;;;;;;;5.00;4.40;;;;;25.36;34.13;98616.94;6145541;28;96830;-69
2022/10/02 08:41:24;;;;;;;;;5.80;5.80;;;;;25.49;34.23;98600.53;6163451;28;96603;-69
2022/10/02 08:45:03;;;;;;;;;5.00;5.00;;;;;25.58;33.54;98593.91;6163589;28;96402;-70
2022/10/02 08:48:53;;;;;;;;;4.00;4.00;;;;;26.06;32.41;98593.63;6125609;28;96653;-69
2022/10/02 08:52:35;;;;;;;;;5.00;4.00;;;;;25.83;33.58;98595.00;6163979;28;96313;-69
2022/10/02 08:56:04;;;;;;;;;4.75;4.75;;;;;25.09;34.13;98595.19;6144247;28;97535;-70
2022/10/02 08:59:51;;;;;;;;;4.60;4.00;;;;;24.23;34.79;98597.72;6143253;28;98537;-68
2022/10/02 09:03:29;;;;;;;;;4.20;4.00;;;;;23.71;35.97;98596.59;6158276;28;96486;-68
2022/10/02 09:07:19;;;;;;;;;7.00;6.00;;;;;22.62;37.66;98594.19;6156967;28;96428;-68
2022/10/02 09:11:03;;;;;;;;;5.40;5.40;;;;;22.22;39.52;98585.66;6120831;28;96321;-70
2022/10/02 09:14:32;;;;;;;;;4.00;4.00;;;;;23.29;38.03;98587.72;6150630;28;96305;-69
2022/10/02 09:17:45;;;;;;;;;4.00;4.00;;;;;24.48;35.05;98593.44;6163690;28;97481;-69
2022/10/02 09:21:10;;;;;;;;;5.00;5.00;;;;;24.10;36.00;98590.34;6145772;28;96695;-69
2022/10/02 09:24:50;;;;;;;;;4.60;4.60;;;;;23.64;36.66;98599.00;6161150;28;96349;-70
2022/10/02 09:28:44;;;;;;;;;5.00;5.00;;;;;23.18;37.62;98586.31;6147573;28;96338;-69
2022/10/02 09:32:26;;;;;;;;;4.00;4.00;;;;;22.53;37.77;98587.78;6153487;28;96404;-70
2022/10/02 09:36:03;;;;;;;;;5.00;5.00;;;;;21.88;39.40;98586.00;6066693;28;96486;-68
2022/10/02 09:39:36;;;;;;;;;5.20;5.00;;;;;21.64;40.11;98576.28;6163236;28;96965;-68
2022/10/02 09:43:04;;;;;;;;;6.00;5.20;;;;;21.27;41.17;98577.16;6162924;28;96241;-68
2022/10/02 09:46:37;;;;;;;;;4.20;4.20;;;;;20.98;41.18;98575.38;6162901;28;96766;-68
2022/10/02 09:50:19;;;;;;;;;5.00;5.00;;;;;20.67;41.54;98566.00;6160705;28;96242;-69
2022/10/02 09:53:58;;;;;;;;;4.60;4.60;;;;;20.37;42.31;98556.25;6158831;28;96972;-68
2022/10/02 09:57:42;;;;;;;;;5.00;4.20;;;;;20.17;43.06;98567.41;6135661;28;96869;-67
2022/10/02 10:01:18;;;;;;;;;5.00;5.00;;;;;20.05;43.30;98556.06;6138030;28;96478;-67
2022/10/02 10:04:49;;;;;;;;;5.00;5.00;;;;;20.09;43.93;98546.16;6180539;28;96606;-67
2022/10/02 10:08:33;;;;;;;;;4.00;4.00;;;;;20.57;43.37;98549.69;6177166;28;96920;-66
2022/10/02 10:12:14;;;;;;;;;4.00;4.00;;;;;20.86;41.57;98550.38;6178865;28;96695;-67
2022/10/02 10:16:02;;;;;;;;;5.00;4.50;;;;;20.82;41.90;98546.56;6179057;28;96395;-67
2022/10/02 10:19:45;;;;;;;;;6.00;5.00;;;;;22.43;39.59;98548.38;6180719;28;96549;-67
2022/10/02 10:23:24;;;;;;;;;6.40;5.60;;;;;23.97;35.97;98548.00;6181143;28;96762;-68
2022/10/02 10:26:56;;;;;;;;;6.60;6.60;;;;;24.26;35.12;98550.25;6175926;28;96504;-68
2022/10/02 10:30:24;;;;;;;;;6.00;6.00;;;;;24.13;35.58;98540.94;6162419;28;97133;-68
2022/10/02 10:34:20;;;;;;;;;6.60;6.00;;;;;23.60;35.32;98545.72;6162110;28;96994;-67
2022/10/02 10:41:48;;;;;;;;;6.40;6.00;;;;;23.07;36.43;98551.13;6162296;28;97484;-68
2022/10/02 10:45:18;;;;;;;;;6.00;5.00;;;;;22.74;36.60;98545.84;6152731;28;96275;-67
2022/10/02 10:49:01;;;;;;;;;4.00;4.00;;;;;22.44;36.77;98541.78;6162280;28;96332;-69
2022/10/02 10:52:14;;;;;;;;;5.25;5.00;;;;;22.14;36.85;98552.59;6161550;28;96338;-69
2022/10/02 10:55:32;;;;;;;;;5.60;4.60;;;;;21.79;37.11;98543.09;6161566;28;96528;-68
2022/10/02 10:58:54;;;;;;;;;4.00;4.00;;;;;21.40;38.33;98516.91;6161730;28;96521;-69
2022/10/02 11:02:23;;;;;;;;;5.00;5.00;;;;;21.29;38.20;98539.31;6150429;28;96819;-69
2022/10/02 11:06:18;;;;;;;;;3.80;3.20;;;;;21.37;38.65;98538.63;6168299;28;96405;-68
2022/10/02 11:10:04;;;;;;;;;2.00;2.00;;;;;21.19;38.88;98532.06;6100333;28;96630;-67
2022/10/02 11:13:32;;;;;;;;;2.40;2.40;;;;;21.24;38.97;98531.16;6095705;28;96513;-67
2022/10/02 11:17:03;;;;;;;;;7.40;7.00;;;;;21.47;38.71;98524.72;6165802;28;96388;-68
2022/10/02 11:20:33;;;;;;;;;6.00;5.00;;;;;21.74;38.39;98523.97;6166169;28;96281;-67
2022/10/02 11:23:54;;;;;;;;;3.00;3.00;;;;;21.64;37.89;98522.25;6147864;28;96466;-67
2022/10/02 11:27:23;;;;;;;;;6.00;5.00;;;;;21.80;38.24;98525.50;6164992;28;96355;-68
2022/10/02 11:30:42;;;;;;;;;3.50;3.50;;;;;21.49;38.14;98526.06;6165935;28;96401;-69
2022/10/02 11:34:18;;;;;;;;;5.00;5.00;;;;;21.40;39.21;98524.31;6165607;28;97518;-67
2022/10/02 11:37:40;;;;;;;;;5.00;5.00;;;;;21.23;38.80;98522.13;6142195;28;97964;-68
2022/10/02 11:41:06;;;;;;;;;6.00;5.00;;;;;21.24;39.23;98523.75;6136725;28;96669;-69
2022/10/02 11:44:28;;;;;;;;;3.00;3.00;;;;;21.11;39.81;98514.31;6162235;28;96589;-67
2022/10/02 11:47:51;;;;;;;;;3.00;3.00;;;;;21.20;39.32;98521.91;6154367;28;97581;-67
2022/10/02 11:51:22;;;;;;;;;4.00;3.20;;;;;21.42;39.22;98511.09;6147006;28;97064;-67
2022/10/02 11:54:44;;;;;;;;;3.20;3.20;;;;;21.89;38.81;98513.50;6160809;28;96588;-67
2022/10/02 11:58:03;;;;;;;;;3.00;3.00;;;;;23.75;36.01;98498.50;6164012;28;97542;-68
2022/10/02 12:01:20;;;;;;;;;4.50;4.00;;;;;25.35;32.50;98509.66;6164393;28;97481;-68
2022/10/02 12:04:40;;;;;;;;;3.60;3.60;;;;;25.97;31.47;98511.94;6160451;28;96521;-67
2022/10/02 12:08:00;;;;;;;;;4.00;2.75;;;;;25.65;31.57;98505.88;6164388;28;96599;-68
2022/10/02 12:11:11;;;;;;;;;3.00;3.00;;;;;24.87;32.12;98498.84;6150872;28;96707;-67
2022/10/02 12:14:29;;;;;;;;;3.00;3.00;;;;;24.38;33.72;98502.81;6172336;28;96841;-67
2022/10/02 12:17:54;;;;;;;;;4.00;4.00;;;;;23.89;34.36;98520.44;6172569;28;96302;-68
2022/10/02 12:28:21;;;;;;;;;5.00;5.00;;;;;22.18;40.60;98537.16;6155494;28;98391;-67
2022/10/02 12:31:31;;;;;;;;;4.50;4.00;;;;;21.52;42.41;98502.69;6162768;28;97555;-68
2022/10/02 12:34:47;;;;;;;;;2.50;2.50;;;;;21.16;43.69;98497.00;6168905;28;97465;-68
2022/10/02 12:38:01;;;;;;;;;4.00;4.00;;;;;20.90;45.37;98506.75;6179098;28;96830;-68
2022/10/02 12:41:21;;;;;;;;;5.00;4.00;;;;;21.10;45.74;98499.03;6180118;28;96119;-67
2022/10/02 12:44:50;;;;;;;;;3.00;3.00;;;;;22.07;46.21;98489.03;6164725;28;96595;-67
2022/10/02 12:48:16;;;;;;;;;4.00;4.00;;;;;22.80;43.27;98464.09;6158725;28;96691;-68
2022/10/02 12:51:38;;;;;;;;;5.00;5.00;;;;;23.53;42.64;98477.38;6161479;28;96329;-69
2022/10/02 12:55:08;;;;;;;;;4.00;4.00;;;;;24.08;40.77;98465.91;6161196;28;96417;-68
2022/10/02 12:58:22;;;;;;;;;4.00;4.00;;;;;24.24;39.77;98453.34;6158203;28;96875;-68
2022/10/02 13:02:03;;;;;;;;;5.00;5.00;;;;;24.63;39.71;98449.66;6150396;28;97242;-69
2022/10/02 13:05:50;;;;;;;;;5.40;5.00;;;;;24.63;39.28;98451.63;6162922;28;98173;-69
2022/10/02 13:09:25;;;;;;;;;4.00;4.00;;;;;24.83;39.71;98457.25;6165176;28;96481;-70
2022/10/02 13:12:50;;;;;;;;;4.00;3.00;;;;;25.11;38.64;98465.22;6135462;28;96623;-68
2022/10/02 13:16:04;;;;;;;;;5.40;5.40;;;;;25.22;37.53;98450.75;6169342;28;96326;-69
2022/10/02 13:19:18;;;;;;;;;5.00;5.00;;;;;25.01;37.96;98441.56;6163839;28;97580;-69
2022/10/02 13:22:32;;;;;;;;;4.75;4.75;;;;;24.65;38.08;98441.88;6154851;28;97338;-69
2022/10/02 13:26:03;;;;;;;;;3.00;3.00;;;;;24.68;37.36;98437.66;6168153;28;97068;-69
2022/10/02 13:29:41;;;;;;;;;4.20;4.20;;;;;24.86;36.85;98428.25;6157627;28;96522;-68
2022/10/02 13:33:09;;;;;;;;;5.00;5.00;;;;;24.59;34.71;98432.94;6162185;28;97464;-68
2022/10/02 13:36:21;;;;;;;;;5.00;5.00;;;;;24.33;34.21;98418.38;6150065;28;96955;-68
2022/10/02 13:39:52;;;;;;;;;3.80;3.80;;;;;23.89;34.62;98400.13;6173186;28;98658;-68
2022/10/02 13:43:20;;;;;;;;;3.75;2.75;;;;;23.75;35.42;98415.91;6169982;28;98211;-67
2022/10/02 13:46:38;;;;;;;;;4.50;4.00;;;;;23.94;35.45;98413.75;6174467;28;96483;-68
2022/10/02 13:50:02;;;;;;;;;6.00;6.00;;;;;24.24;34.75;98412.00;6173615;28;97812;-68
2022/10/02 13:53:32;;;;;;;;;4.00;3.00;;;;;24.21;34.65;98409.09;6177283;28;96577;-69
2022/10/02 13:56:48;;;;;;;;;5.00;5.00;;;;;24.24;34.21;98405.72;6166535;28;97655;-69
2022/10/02 14:00:04;;;;;;;;;5.00;4.40;;;;;24.43;34.22;98417.25;6164406;28;96630;-67
2022/10/02 14:03:27;;;;;;;;;4.00;4.00;;;;;24.23;33.68;98402.16;6164637;28;97290;-69
2022/10/02 14:06:36;;;;;;;;;3.60;3.60;;;;;23.63;33.64;98396.47;6166669;28;96535;-69
2022/10/02 14:09:54;;;;;;;;;4.50;4.50;;;;;23.28;34.67;98406.47;6172766;28;96617;-68
2022/10/02 14:13:26;;;;;;;;;5.00;4.00;;;;;22.61;34.67;98394.72;6174594;28;96519;-68
2022/10/02 14:16:43;;;;;;;;;4.00;4.00;;;;;22.36;36.15;98399.69;6175320;28;97159;-68
2022/10/02 14:20:03;;;;;;;;;5.00;5.00;;;;;22.22;37.00;98400.88;6173873;28;97263;-67
2022/10/02 14:23:30;;;;;;;;;6.00;5.00;;;;;22.02;37.32;98397.44;6137644;28;98504;-68
2022/10/02 14:26:48;;;;;;;;;5.50;5.50;;;;;21.94;37.27;98400.91;6172107;28;96830;-67
2022/10/02 14:30:00;;;;;;;;;6.75;5.25;;;;;21.82;37.69;98400.59;6159425;28;96631;-68
2022/10/02 14:33:13;;;;;;;;;6.00;6.00;;;;;21.75;39.21;98402.94;6173475;28;97600;-68
2022/10/02 14:36:25;;;;;;;;;5.00;4.80;;;;;21.64;40.62;98409.75;6179251;28;97540;-69
2022/10/02 14:39:34;;;;;;;;;5.00;5.00;;;;;21.60;41.52;98403.22;6174673;28;96483;-69
2022/10/02 14:42:55;;;;;;;;;5.00;5.00;;;;;21.50;43.05;98409.72;6177143;28;96712;-68
2022/10/02 14:46:06;;;;;;;;;4.60;4.60;;;;;21.44;43.00;98415.66;6177156;28;96676;-69
2022/10/02 14:49:26;;;;;;;;;4.00;4.00;;;;;21.24;44.04;98416.03;6165649;28;96628;-69
2022/10/02 14:52:58;;;;;;;;;5.00;5.00;;;;;20.90;45.91;98388.94;6154612;28;96696;-67
2022/10/02 14:56:23;;;;;;;;;5.00;5.00;;;;;20.48;46.65;98404.38;6125877;28;96415;-69
2022/10/02 14:59:50;;;;;;;;;5.60;5.60;;;;;20.15;48.61;98402.66;6178918;28;96901;-69
2022/10/02 15:03:31;;;;;;;;;4.80;4.80;;;;;19.56;48.36;98390.31;6179531;28;97110;-68
2022/10/02 15:06:49;;;;;;;;;6.60;6.00;;;;;19.48;47.22;98374.56;6155938;28;96901;-67
2022/10/02 15:10:15;;;;;;;;;4.75;4.75;;;;;19.59;48.51;98369.78;6162053;28;97639;-69
2022/10/02 15:13:27;;;;;;;;;5.00;5.00;;;;;19.62;49.29;98374.66;6181908;28;97102;-67
2022/10/02 15:20:10;;;;;;;;;3.20;3.20;;;;;19.63;51.41;98368.09;6176335;28;96801;-67
2022/10/02 15:23:24;;;;;;;;;3.00;2.50;;;;;19.31;51.58;98338.66;6171604;28;98309;-67
2022/10/02 15:26:49;;;;;;;;;7.00;5.40;;;;;19.33;51.79;98372.78;6162891;28;97046;-68
2022/10/02 15:30:04;;;;;;;;;6.40;6.40;;;;;19.31;51.93;98372.25;6165921;28;96882;-68
2022/10/02 15:33:20;;;;;;;;;6.00;6.00;;;;;19.21;52.22;98369.63;6160285;28;96846;-68
2022/10/02 15:36:44;;;;;;;;;4.00;3.20;;;;;19.17;52.08;98370.50;6163009;28;96908;-67
2022/10/02 15:40:05;;;;;;;;;5.00;4.40;;;;;18.95;53.04;98340.97;6163503;28;96714;-68
2022/10/02 15:43:32;;;;;;;;;6.00;6.00;;;;;18.92;53.62;98363.38;6179058;28;96466;-68
2022/10/02 15:46:52;;;;;;;;;6.00;6.00;;;;;18.79;54.90;98355.88;6171320;28;97431;-67
2022/10/02 15:50:10;;;;;;;;;6.40;6.00;;;;;18.72;54.92;98349.94;6162630;28;96421;-68
2022/10/02 15:53:36;;;;;;;;;6.00;5.00;;;;;18.66;55.94;98367.47;6156347;28;96396;-68